createdAt,value
2019-06-27T00:01:52.359Z,13.57
2019-06-27T00:04:58.591Z,10.87
2019-06-27T00:08:03.761Z,12.77
2019-06-27T00:11:09.041Z,13.50
2019-06-27T00:14:14.262Z,12.30
2019-06-27T00:17:20.425Z,10.40
2019-06-27T00:20:25.610Z,9.50
2019-06-27T00:23:30.767Z,8.80
2019-06-27T00:26:35.915Z,16.07
2019-06-27T00:29:41.187Z,8.83
2019-06-27T00:32:46.386Z,12.53
2019-06-27T00:35:51.536Z,8.10
2019-06-27T00:38:56.695Z,8.93
2019-06-27T00:42:01.907Z,15.23
2019-06-27T00:45:07.653Z,12.50
2019-06-27T00:48:12.826Z,9.47
2019-06-27T00:51:18.096Z,8.73
2019-06-27T00:54:23.225Z,12.77
2019-06-27T00:57:28.390Z,10.63
2019-06-27T01:00:33.506Z,8.10
2019-06-27T01:03:38.768Z,9.20
2019-06-27T01:06:43.973Z,11.57
2019-06-27T01:09:49.202Z,11.53
2019-06-27T01:12:54.367Z,14.10
2019-06-27T01:15:59.627Z,9.80
2019-06-27T01:19:04.870Z,9.20
2019-06-27T01:22:10.106Z,7.87
2019-06-27T01:25:15.276Z,8.27
2019-06-27T01:28:21.706Z,8.53
2019-06-27T01:31:26.844Z,7.83
2019-06-27T01:34:33.205Z,6.50
2019-06-27T01:37:38.335Z,9.90
2019-06-27T01:40:43.492Z,6.40
2019-06-27T01:43:52.346Z,10.13
2019-06-27T01:46:55.655Z,8.90
2019-06-27T01:50:00.785Z,7.30
2019-06-27T01:53:06.009Z,10.87
2019-06-27T01:56:11.152Z,7.00
2019-06-27T01:59:16.313Z,9.80
2019-06-27T02:02:22.407Z,5.23
2019-06-27T02:05:27.608Z,9.87
2019-06-27T02:08:32.843Z,6.23
2019-06-27T02:11:38.011Z,5.23
2019-06-27T02:14:43.150Z,9.47
2019-06-27T02:17:48.374Z,8.93
2019-06-27T02:20:53.580Z,5.20
2019-06-27T02:23:58.706Z,12.70
2019-06-27T02:27:03.929Z,8.50
2019-06-27T02:30:10.732Z,8.00
2019-06-27T02:33:16.036Z,5.87
2019-06-27T02:36:21.231Z,15.63
2019-06-27T02:39:26.480Z,8.70
2019-06-27T02:42:31.609Z,13.87
2019-06-27T02:45:36.762Z,10.03
2019-06-27T02:48:42.056Z,10.10
2019-06-27T02:51:49.251Z,14.07
2019-06-27T02:54:54.111Z,8.10
2019-06-27T02:57:59.249Z,9.27
2019-06-27T03:01:05.506Z,7.60
2019-06-27T03:04:10.762Z,12.90
2019-06-27T03:07:16.011Z,11.90
2019-06-27T03:10:21.118Z,7.93
2019-06-27T03:13:26.380Z,17.47
2019-06-27T03:16:31.568Z,14.77
2019-06-27T03:19:36.717Z,10.43
2019-06-27T03:22:41.910Z,8.13
2019-06-27T03:25:47.094Z,19.20
2019-06-27T03:28:54.036Z,9.63
2019-06-27T03:31:59.139Z,9.60
2019-06-27T03:35:04.437Z,8.50
2019-06-27T03:38:09.663Z,11.60
2019-06-27T03:41:14.847Z,10.23
2019-06-27T03:44:20.077Z,17.47
2019-06-27T03:47:25.351Z,9.57
2019-06-27T03:50:30.543Z,10.20
2019-06-27T03:53:35.772Z,13.90
2019-06-27T03:56:42.783Z,10.00
2019-06-27T03:59:47.967Z,16.60
2019-06-27T04:02:53.177Z,14.80
2019-06-27T04:05:58.494Z,12.63
2019-06-27T04:09:03.826Z,15.07
2019-06-27T04:12:09.017Z,19.10
2019-06-27T04:15:14.148Z,11.17
2019-06-27T04:18:20.396Z,7.77
2019-06-27T04:21:25.678Z,9.57
2019-06-27T04:24:30.901Z,11.50
2019-06-27T04:27:36.089Z,11.17
2019-06-27T04:30:41.267Z,14.33
2019-06-27T04:33:47.312Z,11.60
2019-06-27T04:36:52.537Z,14.07
2019-06-27T04:39:57.665Z,17.20
2019-06-27T04:43:05.830Z,12.30
2019-06-27T04:46:10.110Z,13.27
2019-06-27T04:49:15.389Z,10.53
2019-06-27T04:52:20.652Z,17.13
2019-06-27T04:55:25.844Z,17.90
2019-06-27T04:58:31.024Z,13.20
2019-06-27T05:01:37.308Z,13.50
2019-06-27T05:04:42.567Z,14.83
2019-06-27T05:07:47.752Z,13.53
2019-06-27T05:10:52.933Z,9.50
2019-06-27T05:13:59.206Z,17.13
2019-06-27T05:17:04.388Z,15.90
2019-06-27T05:20:09.610Z,17.33
2019-06-27T05:23:14.822Z,15.30
2019-06-27T05:26:19.963Z,19.73
2019-06-27T05:29:25.146Z,11.60
2019-06-27T05:32:30.288Z,16.87
2019-06-27T05:35:35.452Z,14.60
2019-06-27T05:38:40.713Z,14.23
2019-06-27T05:41:45.879Z,20.77
2019-06-27T05:44:51.025Z,24.30
2019-06-27T05:47:56.301Z,16.90
2019-06-27T05:51:03.410Z,16.53
2019-06-27T05:54:08.607Z,15.00
2019-06-27T05:57:13.777Z,23.50
2019-06-27T06:00:28.515Z,14.37
2019-06-27T06:03:25.876Z,15.70
2019-06-27T06:06:31.097Z,18.70
2019-06-27T06:09:37.352Z,15.50
2019-06-27T06:12:42.520Z,10.13
2019-06-27T06:15:47.733Z,6.43
2019-06-27T06:18:52.935Z,8.47
2019-06-27T06:21:58.093Z,8.17
2019-06-27T06:25:03.367Z,12.43
2019-06-27T06:28:08.581Z,9.73
2019-06-27T06:31:13.748Z,15.60
2019-06-27T06:34:18.886Z,16.27
2019-06-27T06:37:24.150Z,15.23
2019-06-27T06:40:29.305Z,13.37
2019-06-27T06:43:34.512Z,11.57
2019-06-27T06:46:39.712Z,8.90
2019-06-27T06:49:44.865Z,7.33
2019-06-27T06:52:50.078Z,11.87
2019-06-27T06:55:55.350Z,12.93
2019-06-27T06:59:00.516Z,13.23
2019-06-27T07:02:05.695Z,10.63
2019-06-27T07:05:11.237Z,12.27
2019-06-27T07:08:16.396Z,11.43
2019-06-27T07:11:21.637Z,10.53
2019-06-27T07:14:27.239Z,17.83
2019-06-27T07:17:32.587Z,8.60
2019-06-27T07:20:37.758Z,8.50
2019-06-27T07:23:44.986Z,6.70
2019-06-27T07:26:50.196Z,8.47
2019-06-27T07:29:55.387Z,6.77
2019-06-27T07:33:00.551Z,8.13
2019-06-27T07:36:05.721Z,10.23
2019-06-27T07:39:10.920Z,10.40
2019-06-27T07:42:16.175Z,10.47
2019-06-27T07:45:21.407Z,17.17
2019-06-27T07:48:30.338Z,13.30
2019-06-27T07:51:36.036Z,11.80
2019-06-27T07:54:41.284Z,10.70
2019-06-27T07:57:46.448Z,19.13
2019-06-27T08:00:52.746Z,10.73
2019-06-27T08:03:58.883Z,11.90
2019-06-27T08:07:04.132Z,10.30
2019-06-27T08:10:09.480Z,11.80
2019-06-27T08:13:16.326Z,8.70
2019-06-27T08:16:21.567Z,18.67
2019-06-27T08:19:26.710Z,14.00
2019-06-27T08:22:31.972Z,12.00
2019-06-27T08:25:37.143Z,9.77
2019-06-27T08:28:42.301Z,11.07
2019-06-27T08:31:51.630Z,9.90
2019-06-27T08:34:54.349Z,15.03
2019-06-27T08:37:59.567Z,12.23
2019-06-27T08:41:04.811Z,10.63
2019-06-27T08:44:09.957Z,9.07
2019-06-27T08:47:15.138Z,10.10
2019-06-27T08:50:20.630Z,10.83
2019-06-27T08:53:25.888Z,18.30
2019-06-27T08:56:31.040Z,14.70
2019-06-27T08:59:36.298Z,14.80
2019-06-27T09:02:41.473Z,12.33
2019-06-27T09:05:46.653Z,15.93
2019-06-27T09:08:51.874Z,10.50
2019-06-27T09:11:56.999Z,12.10
2019-06-27T09:15:02.208Z,16.10
2019-06-27T09:18:07.360Z,13.63
2019-06-27T09:21:14.190Z,13.20
2019-06-27T09:24:19.460Z,13.23
2019-06-27T09:27:25.728Z,13.50
2019-06-27T09:30:30.914Z,12.87
2019-06-27T09:33:36.068Z,17.00
2019-06-27T09:36:41.247Z,13.03
2019-06-27T09:39:46.454Z,11.20
2019-06-27T09:42:51.639Z,11.20
2019-06-27T09:45:56.786Z,14.40
2019-06-27T09:49:01.959Z,11.57
2019-06-27T09:52:07.152Z,12.60
2019-06-27T09:55:13.319Z,12.00
2019-06-27T09:58:18.434Z,12.70
2019-06-27T10:01:23.617Z,11.63
2019-06-27T10:04:28.809Z,10.80
2019-06-27T10:07:34.062Z,13.33
2019-06-27T10:10:39.209Z,9.53
2019-06-27T10:13:44.339Z,7.10
2019-06-27T10:16:49.611Z,9.93
2019-06-27T10:19:54.831Z,11.73
2019-06-27T10:23:00.008Z,10.67
2019-06-27T10:26:05.218Z,9.43
2019-06-27T10:29:10.479Z,8.57
2019-06-27T10:32:15.722Z,9.80
2019-06-27T10:35:21.098Z,11.33
2019-06-27T10:38:26.292Z,14.13
2019-06-27T10:41:33.077Z,8.93
2019-06-27T10:44:38.299Z,10.60
2019-06-27T10:47:43.453Z,14.30
2019-06-27T10:50:48.697Z,6.60
2019-06-27T10:53:53.863Z,8.40
2019-06-27T10:56:59.103Z,7.90
2019-06-27T11:00:05.012Z,7.77
2019-06-27T11:03:15.673Z,12.73
2019-06-27T11:06:17.237Z,9.07
2019-06-27T11:09:22.451Z,9.43
2019-06-27T11:12:27.610Z,12.80
2019-06-27T11:15:33.413Z,6.30
2019-06-27T11:18:38.563Z,10.20
2019-06-27T11:21:43.740Z,8.97
2019-06-27T11:24:48.852Z,7.50
2019-06-27T11:27:54.047Z,12.07
2019-06-27T11:30:59.342Z,13.70
2019-06-27T11:34:04.609Z,8.33
2019-06-27T11:37:10.048Z,10.30
2019-06-27T11:40:16.418Z,7.80
2019-06-27T11:43:23.879Z,7.70
2019-06-27T11:46:29.238Z,10.27
2019-06-27T11:49:34.462Z,9.30
2019-06-27T11:52:39.743Z,12.87
2019-06-27T11:55:45.083Z,6.50
2019-06-27T11:58:50.250Z,6.97
2019-06-27T12:01:55.422Z,9.80
2019-06-27T12:05:00.609Z,7.63
2019-06-27T12:08:05.803Z,10.30
2019-06-27T12:11:11.042Z,9.27
2019-06-27T12:14:16.259Z,8.70
2019-06-27T12:17:21.419Z,7.50
2019-06-27T12:20:26.614Z,7.80
2019-06-27T12:23:31.770Z,9.03
2019-06-27T12:26:36.900Z,6.40
2019-06-27T12:29:42.094Z,8.40
2019-06-27T12:32:52.327Z,9.37
2019-06-27T12:35:54.140Z,12.37
2019-06-27T12:38:59.402Z,6.27
2019-06-27T12:42:04.644Z,9.30
2019-06-27T12:45:11.195Z,12.53
2019-06-27T12:48:16.743Z,7.40
2019-06-27T12:51:21.947Z,6.10
2019-06-27T12:54:27.305Z,11.00
2019-06-27T12:57:32.549Z,8.93
2019-06-27T13:00:39.640Z,6.70
2019-06-27T13:03:44.778Z,8.80
2019-06-27T13:06:49.937Z,10.63
2019-06-27T13:09:55.259Z,10.93
2019-06-27T13:13:00.679Z,9.27
2019-06-27T13:16:05.895Z,8.40
2019-06-27T13:19:11.141Z,7.60
2019-06-27T13:22:16.386Z,10.60
2019-06-27T13:25:21.737Z,6.10
2019-06-27T13:28:27.317Z,6.20
2019-06-27T13:31:32.741Z,7.50
2019-06-27T13:34:40.843Z,9.30
2019-06-27T13:37:44.924Z,12.37
2019-06-27T13:40:50.195Z,16.40
2019-06-27T13:43:55.508Z,6.50
2019-06-27T13:47:00.817Z,9.40
2019-06-27T13:50:06.515Z,8.73
2019-06-27T13:53:11.774Z,9.03
2019-06-27T13:56:17.137Z,8.13
2019-06-27T13:59:22.387Z,7.90
2019-06-27T14:02:27.569Z,5.57
2019-06-27T14:05:32.784Z,7.00
2019-06-27T14:08:38.170Z,8.77
2019-06-27T14:11:43.492Z,6.93
2019-06-27T14:14:59.302Z,9.63
2019-06-27T14:17:55.728Z,8.63
2019-06-27T14:21:00.940Z,7.00
2019-06-27T14:24:06.156Z,8.33
2019-06-27T14:27:11.395Z,6.63
2019-06-27T14:30:17.605Z,8.87
2019-06-27T14:33:22.817Z,7.70
2019-06-27T14:36:29.063Z,11.90
2019-06-27T14:39:34.260Z,7.33
2019-06-27T14:42:39.485Z,5.60
2019-06-27T14:45:44.954Z,6.83
2019-06-27T14:48:50.158Z,9.23
2019-06-27T14:51:55.383Z,4.30
2019-06-27T14:55:00.614Z,5.77
2019-06-27T14:58:07.991Z,7.37
2019-06-27T15:01:13.162Z,6.67
2019-06-27T15:04:18.542Z,6.97
2019-06-27T15:07:23.810Z,4.87
2019-06-27T15:10:28.965Z,4.97
2019-06-27T15:13:34.169Z,7.87
2019-06-27T15:16:39.296Z,4.07
2019-06-27T15:19:44.541Z,6.70
2019-06-27T15:22:49.765Z,5.00
2019-06-27T15:25:55.037Z,6.73
2019-06-27T15:29:00.275Z,7.47
2019-06-27T15:32:05.560Z,5.10
2019-06-27T15:35:10.976Z,5.50
2019-06-27T15:38:16.368Z,4.40
2019-06-27T15:41:24.367Z,6.67
2019-06-27T15:44:30.570Z,8.23
2019-06-27T15:47:35.965Z,4.00
2019-06-27T15:50:41.154Z,5.20
2019-06-27T15:53:46.400Z,5.23
2019-06-27T15:56:51.655Z,7.93
2019-06-27T15:59:56.885Z,9.20
2019-06-27T16:03:02.189Z,9.20
2019-06-27T16:06:09.762Z,10.00
2019-06-27T16:09:14.471Z,5.80
2019-06-27T16:12:19.736Z,5.50
2019-06-27T16:15:25.982Z,4.77
2019-06-27T16:18:31.216Z,5.10
2019-06-27T16:21:36.464Z,7.33
2019-06-27T16:24:41.668Z,6.67
2019-06-27T16:27:46.861Z,5.97
2019-06-27T16:30:52.085Z,3.70
2019-06-27T16:33:57.353Z,8.83
2019-06-27T16:37:03.660Z,3.40
2019-06-27T16:40:09.371Z,7.10
2019-06-27T16:43:15.590Z,3.67
2019-06-27T16:46:20.804Z,4.87
2019-06-27T16:49:26.019Z,3.77
2019-06-27T16:52:31.234Z,5.50
2019-06-27T16:55:36.550Z,3.30
2019-06-27T16:58:41.844Z,4.97
2019-06-27T17:01:48.241Z,5.13
2019-06-27T17:04:53.483Z,3.37
2019-06-27T17:07:59.711Z,4.37
2019-06-27T17:11:04.961Z,6.90
2019-06-27T17:14:10.217Z,2.93
2019-06-27T17:17:15.504Z,5.10
2019-06-27T17:20:20.691Z,3.30
2019-06-27T17:23:25.899Z,5.43
2019-06-27T17:26:31.224Z,2.60
2019-06-27T17:29:36.421Z,3.60
2019-06-27T17:32:41.646Z,2.93
2019-06-27T17:35:46.914Z,2.50
2019-06-27T17:38:52.170Z,3.30
2019-06-27T17:41:57.313Z,6.23
2019-06-27T17:45:02.546Z,4.23
2019-06-27T17:48:07.806Z,2.40
2019-06-27T17:51:13.081Z,3.90
2019-06-27T17:54:20.709Z,5.33
2019-06-27T17:57:26.058Z,2.50
2019-06-27T18:00:31.417Z,5.87
2019-06-27T18:03:36.609Z,2.53
2019-06-27T18:06:42.124Z,2.80
2019-06-27T18:09:47.365Z,3.90
2019-06-27T18:12:53.554Z,3.23
2019-06-27T18:15:58.759Z,2.67
2019-06-27T18:19:04.001Z,9.23
2019-06-27T18:22:09.235Z,3.20
2019-06-27T18:25:14.888Z,4.73
2019-06-27T18:28:20.117Z,4.27
2019-06-27T18:31:26.440Z,4.27
2019-06-27T18:34:31.589Z,4.90
2019-06-27T18:37:36.755Z,3.33
2019-06-27T18:40:41.960Z,4.20
2019-06-27T18:43:47.154Z,6.17
2019-06-27T18:46:52.390Z,4.23
2019-06-27T18:49:57.655Z,6.53
2019-06-27T18:53:02.964Z,4.50
2019-06-27T18:56:08.164Z,6.37
2019-06-27T18:59:13.492Z,5.50
2019-06-27T19:02:19.742Z,6.80
2019-06-27T19:05:25.036Z,7.20
2019-06-27T19:08:30.381Z,6.60
2019-06-27T19:11:35.615Z,5.00
2019-06-27T19:14:42.538Z,8.67
2019-06-27T19:17:49.135Z,6.20
2019-06-27T19:20:54.556Z,11.47
2019-06-27T19:24:05.263Z,6.80
2019-06-27T19:27:10.561Z,7.40
2019-06-27T19:30:16.064Z,12.00
2019-06-27T19:33:21.445Z,11.27
2019-06-27T19:36:26.646Z,9.47
2019-06-27T19:39:31.927Z,9.33
2019-06-27T19:42:37.159Z,7.50
2019-06-27T19:45:42.350Z,8.63
2019-06-27T19:48:47.639Z,10.43
2019-06-27T19:51:52.895Z,8.20
2019-06-27T19:54:58.173Z,6.03
2019-06-27T19:58:08.345Z,9.00
2019-06-27T20:01:10.220Z,7.27
2019-06-27T20:04:16.599Z,6.20
2019-06-27T20:07:21.849Z,6.80
2019-06-27T20:10:27.165Z,10.70
2019-06-27T20:13:32.626Z,12.53
2019-06-27T20:16:45.401Z,11.80
2019-06-27T20:19:50.681Z,7.50
2019-06-27T20:22:55.904Z,8.60
2019-06-27T20:26:03.778Z,5.87
2019-06-27T20:29:08.049Z,7.00
2019-06-27T20:32:13.196Z,7.40
2019-06-27T20:35:18.365Z,9.70
2019-06-27T20:38:34.318Z,8.90
2019-06-27T20:41:31.992Z,7.00
2019-06-27T20:44:37.185Z,8.10
2019-06-27T20:47:42.427Z,7.93
2019-06-27T20:50:47.665Z,6.57
2019-06-27T20:53:52.902Z,12.63
2019-06-27T20:56:58.090Z,8.47
2019-06-27T21:00:03.358Z,6.63
2019-06-27T21:03:08.731Z,6.13
2019-06-27T21:06:13.910Z,10.87
2019-06-27T21:09:19.294Z,8.53
2019-06-27T21:12:24.520Z,9.50
2019-06-27T21:15:29.904Z,10.90
2019-06-27T21:18:36.115Z,6.83
2019-06-27T21:21:42.747Z,9.40
2019-06-27T21:24:47.932Z,11.20
2019-06-27T21:27:53.152Z,9.00
2019-06-27T21:30:58.336Z,10.33
2019-06-27T21:34:03.639Z,12.10
2019-06-27T21:37:09.658Z,12.13
2019-06-27T21:40:15.926Z,8.37
2019-06-27T21:43:21.189Z,8.13
2019-06-27T21:46:26.577Z,10.77
2019-06-27T21:49:32.907Z,9.90
2019-06-27T21:52:38.167Z,7.33
2019-06-27T21:55:43.368Z,11.20
2019-06-27T21:58:48.556Z,14.53
2019-06-27T22:01:53.766Z,12.77
2019-06-27T22:04:58.902Z,14.53
2019-06-27T22:08:04.309Z,15.83
2019-06-27T22:11:09.602Z,8.43
2019-06-27T22:14:14.841Z,8.27
2019-06-27T22:17:20.033Z,10.53
2019-06-27T22:20:25.463Z,8.63
2019-06-27T22:23:30.687Z,8.50
2019-06-27T22:26:35.880Z,7.83
2019-06-27T22:29:41.992Z,12.97
2019-06-27T22:32:47.226Z,8.07
2019-06-27T22:35:52.431Z,8.90
2019-06-27T22:39:15.089Z,13.20
2019-06-27T22:42:38.112Z,10.63
2019-06-27T22:46:01.056Z,12.83
2019-06-27T22:49:05.342Z,7.50
2019-06-27T22:52:28.063Z,10.27
2019-06-27T22:55:33.431Z,10.30
2019-06-27T22:58:38.626Z,11.43
2019-06-27T23:01:43.807Z,12.77
2019-06-27T23:04:48.986Z,7.63
2019-06-27T23:07:54.176Z,8.90
2019-06-27T23:10:59.303Z,13.27
2019-06-27T23:14:04.490Z,13.33
2019-06-27T23:17:09.610Z,11.70
2019-06-27T23:20:15.625Z,9.57
2019-06-27T23:23:20.821Z,11.23
2019-06-27T23:26:26.047Z,11.80
2019-06-27T23:29:31.220Z,7.67
2019-06-27T23:32:36.488Z,8.63
2019-06-27T23:35:41.720Z,7.83
2019-06-27T23:38:46.900Z,10.53
2019-06-27T23:41:52.106Z,10.50
2019-06-27T23:44:57.275Z,8.33
2019-06-27T23:48:02.461Z,4.73
2019-06-27T23:51:07.706Z,10.87
2019-06-27T23:54:12.881Z,10.40
2019-06-27T23:57:18.032Z,8.23
